Flight Track Log - Related Links

Times and Time Zones

All times are in EST time to prevent confusion due to time zone crossing. See the SWA1004 flight status page for this flight to view local times or setup timezone preferences in your user account.

Time Position Orientation Groundspeed Altitude Reporting Facility
EST Latitude Longitude Course Direction KTS MPH feet Rate Location/Type
Sat 02:46:07 PM 36.0760 -115.1810 269° West 183 211 3,400  Level FlightAware ADS-B
Sat 02:46:16 PM 36.0760 -115.1900 270° West 194 223 3,600 2,151 Climbing FlightAware ADS-B
Sat 02:47:00 PM 36.0710 -115.2430 263° West 223 257 5,300 2,261 Climbing FlightAware ADS-B
Sat 02:47:25 PM 36.0500 -115.2660 222° Southwest 249 287 6,200 2,400 Climbing FlightAware ADS-B
Sat 02:47:50 PM 36.0220 -115.2780 199° South 256 295 7,300 2,640 Climbing FlightAware ADS-B
Sat 02:48:15 PM 35.9940 -115.2900 199° South 276 318 8,400 2,800 Climbing FlightAware ADS-B
Sat 02:48:35 PM 35.9680 -115.2990 196° South 278 320 9,400 2,500 Climbing FlightAware ADS-B
Sat 02:49:15 PM 35.9210 -115.2690 153° Southeast 320 368 10,900 2,123 Climbing FlightAware ADS-B
Sat 02:49:40 PM 35.9100 -115.2230 106° East 347 399 11,700 2,388 Climbing FlightAware ADS-B
Sat 02:50:58 PM 35.9140 -115.0580 88° East 383 441 15,000 2,571 Climbing FlightAware ADS-B
Sat 02:51:39 PM 35.9150 -114.9660 89° East 392 451 16,800 2,400 Climbing FlightAware ADS-B
Sat 02:52:38 PM 35.9170 -114.8310 89° East 410 472 19,000 2,224 Climbing FlightAware ADS-B
Sat 02:53:35 PM 35.9180 -114.6970 89° East 423 487 21,100 2,292 Climbing FlightAware ADS-B
Sat 02:54:07 PM 35.9190 -114.6200 89° East 423 487 22,400 2,149 Climbing FlightAware ADS-B
Sat 02:54:42 PM 35.9200 -114.5340 89° East 431 496 23,500 1,705 Climbing FlightAware ADS-B
Sat 02:55:42 PM 35.9210 -114.3840 89° East 447 514 25,100 1,593 Climbing FlightAware ADS-B
Sat 02:56:35 PM 35.9220 -114.2510 89° East 456 525 26,500 1,615 Climbing FlightAware ADS-B
Sat 02:57:00 PM 35.9190 -114.1840 93° East 455 524 27,200 1,585 Climbing FlightAware ADS-B
Sat 02:57:28 PM 35.8980 -114.1170 111° Southeast 452 520 27,900 1,425 Climbing FlightAware ADS-B
Sat 02:58:20 PM 35.8450 -113.9980 119° Southeast 459 528 29,100 1,327 Climbing FlightAware ADS-B
Sat 02:59:21 PM 35.7810 -113.8600 120° Southeast 464 534 30,400 1,250 Climbing FlightAware ADS-B
Sat 02:59:56 PM 35.7420 -113.7780 120° Southeast 470 541 31,100 1,161 Climbing FlightAware ADS-B
Sat 03:00:54 PM 35.6790 -113.6430 120° Southeast 474 545 32,200 1,146 Climbing FlightAware ADS-B
Sat 03:01:25 PM 35.6450 -113.5720 120° Southeast 475 547 32,800 1,235 Climbing FlightAware ADS-B
Sat 03:02:02 PM 35.6040 -113.4860 120° Southeast 473 544 33,600 809 Climbing FlightAware ADS-B
Sat 03:02:54 PM 35.5470 -113.3660 120° Southeast 471 542 34,000 233 Climbing FlightAware ADS-B
Sat 03:03:45 PM 35.4910 -113.2470 120° Southeast 470 541 34,000 346 Level FlightAware ADS-B
Sat 03:04:38 PM 35.4330 -113.1270 121° Southeast 467 537 34,600 923 Climbing FlightAware ADS-B
Sat 03:05:29 PM 35.3770 -113.0100 120° Southeast 463 533 35,600 962 Climbing FlightAware ADS-B
Sat 03:06:24 PM 35.3200 -112.8910 120° Southeast 465 535 36,300 718 Climbing FlightAware ADS-B
Sat 03:07:26 PM 35.2500 -112.7470 121° Southeast 468 539 37,000 442 Climbing FlightAware ADS-B
Sat 03:07:59 PM 35.2140 -112.6730 121° Southeast 467 537 37,000  Level FlightAware ADS-B
Sat 03:08:35 PM 35.1750 -112.5930 121° Southeast 465 535 37,000  Level FlightAware ADS-B
Sat 03:09:34 PM 35.1090 -112.4570 121° Southeast 464 534 37,000  Level FlightAware ADS-B
Sat 03:10:30 PM 35.0470 -112.3310 121° Southeast 463 533 37,000  Level FlightAware ADS-B
Sat 03:11:24 PM 34.9900 -112.2150 121° Southeast 464 534 37,000  Level FlightAware ADS-B
Sat 03:11:55 PM 34.9550 -112.1440 121° Southeast 464 534 37,000  Level FlightAware ADS-B
Sat 03:12:25 PM 34.9220 -112.0760 121° Southeast 463 533 37,000  Level FlightAware ADS-B
Sat 03:12:54 PM 34.8900 -112.0130 122° Southeast 463 533 37,000  Level FlightAware ADS-B
Sat 03:13:28 PM 34.8500 -111.9330 121° Southeast 464 534 37,000  Level FlightAware ADS-B
Sat 03:14:30 PM 34.7820 -111.7960 121° Southeast 465 535 37,000  Level FlightAware ADS-B
Sat 03:15:26 PM 34.7190 -111.6690 121° Southeast 466 536 37,000  Level FlightAware ADS-B
Sat 03:16:24 PM 34.6540 -111.5390 121° Southeast 466 536 37,000  Level FlightAware ADS-B
Sat 03:17:14 PM 34.5990 -111.4290 121° Southeast 467 537 37,000  Level FlightAware ADS-B
Sat 03:17:54 PM 34.5530 -111.3380 122° Southeast 468 539 37,000  Level FlightAware ADS-B
Sat 03:18:54 PM 34.4860 -111.2060 122° Southeast 468 539 37,000  Level FlightAware ADS-B
Sat 03:19:26 PM 34.4500 -111.1340 121° Southeast 468 539 37,000  Level FlightAware ADS-B
Sat 03:19:58 PM 34.4130 -111.0610 122° Southeast 467 537 37,000  Level FlightAware ADS-B
Sat 03:20:55 PM 34.3490 -110.9360 122° Southeast 468 539 37,000  Level FlightAware ADS-B
Sat 03:21:26 PM 34.3140 -110.8680 122° Southeast 468 539 37,000  Level FlightAware ADS-B
Sat 03:21:58 PM 34.2780 -110.7970 122° Southeast 469 540 37,000  Level FlightAware ADS-B
Sat 03:22:58 PM 34.2090 -110.6620 122° Southeast 468 539 37,000  Level FlightAware ADS-B
Sat 03:23:54 PM 34.1450 -110.5380 122° Southeast 468 539 37,000  Level FlightAware ADS-B
Sat 03:24:28 PM 34.1060 -110.4630 122° Southeast 468 539 37,000  Level FlightAware ADS-B
Sat 03:25:00 PM 34.0700 -110.3930 122° Southeast 467 537 37,000  Level FlightAware ADS-B
Sat 03:26:00 PM 34.0000 -110.2590 122° Southeast 465 535 37,000  Level FlightAware ADS-B
Sat 03:26:58 PM 33.9340 -110.1330 122° Southeast 464 534 37,000  Level FlightAware ADS-B
Sat 03:27:30 PM 33.8970 -110.0610 122° Southeast 463 533 37,000  Level FlightAware ADS-B
Sat 03:28:01 PM 33.8750 -110.0180 122° Southeast 463 533 37,000  Level FlightAware ADS-B
Sat 03:28:53 PM 33.8240 -109.9220 123° Southeast 463 533 37,000  Level FlightAware ADS-B
Sat 03:29:31 PM 33.7880 -109.8510 121° Southeast 463 533 37,000  Level FlightAware ADS-B
Sat 03:30:07 PM 33.7530 -109.7840 122° Southeast 463 533 37,000  Level FlightAware ADS-B
Sat 03:30:44 PM 33.7170 -109.7150 122° Southeast 463 533 37,000  Level FlightAware ADS-B
Sat 03:31:08 PM 33.6940 -109.6710 122° Southeast 463 533 37,000  Level FlightAware ADS-B
Sat 03:31:57 PM 33.6470 -109.5800 122° Southeast 463 533 37,000  Level FlightAware ADS-B
Sat 03:32:57 PM 33.5890 -109.4690 122° Southeast 463 533 37,000  Level FlightAware ADS-B
Sat 03:34:04 PM 33.4750 -109.1840 116° Southeast 479 551 37,000  Level FlightAware ADS-B
Sat 03:34:44 PM 33.4580 -109.0790 101° East 480 552 37,000  Level FlightAware ADS-B
Sat 03:35:14 PM 33.4450 -109.0010 101° East 480 552 37,000  Level FlightAware ADS-B
Sat 03:35:53 PM 33.4310 -108.9170 101° East 480 552 37,000  Level FlightAware ADS-B
Sat 03:36:53 PM 33.4090 -108.7840 101° East 480 552 37,000  Level FlightAware ADS-B
Sat 03:37:30 PM 33.3960 -108.7020 101° East 480 552 37,000  Level FlightAware ADS-B
Sat 03:38:06 PM 33.3830 -108.6220 101° East 480 552 37,000  Level FlightAware ADS-B
Sat 03:39:04 PM 33.3620 -108.4930 101° East 480 552 37,000  Level FlightAware ADS-B
Sat 03:39:40 PM 33.3490 -108.4130 101° East 480 552 37,000  Level FlightAware ADS-B
Sat 03:40:04 PM 33.3400 -108.3600 101° East 480 552 37,000  Level FlightAware ADS-B
Sat 03:40:52 PM 33.3230 -108.2530 101° East 480 552 37,000  Level FlightAware ADS-B
Sat 03:41:52 PM 33.3020 -108.1200 101° East 480 552 37,000  Level FlightAware ADS-B
Sat 03:42:52 PM 33.2800 -107.9870 101° East 480 552 37,000  Level FlightAware ADS-B
Sat 03:43:40 PM 33.2630 -107.8810 101° East 480 552 37,000  Level FlightAware ADS-B
Sat 03:44:29 PM 33.2450 -107.7720 101° East 480 552 37,000  Level FlightAware ADS-B
Sat 03:45:17 PM 33.2280 -107.6660 101° East 480 552 37,000  Level FlightAware ADS-B
Sat 03:47:00 PM 33.1685 -107.4091 105° East  Level Estimated
Sat 03:48:00 PM 33.1335 -107.2597 106° East  Level Estimated
Sat 03:49:00 PM 33.0984 -107.1103 106° East  Level Estimated
Sat 03:50:00 PM 33.0631 -106.9611 106° East  Level Estimated
Sat 03:51:00 PM 33.0277 -106.8120 106° East  Level Estimated
Sat 03:52:00 PM 32.9920 -106.6630 106° East  Level Estimated
Sat 03:53:00 PM 32.9562 -106.5141 106° East  Level Estimated
Sat 03:54:00 PM 32.9202 -106.3654 106° East  Level Estimated
Sat 03:55:00 PM 32.8841 -106.2167 106° East  Level Estimated
Sat 03:56:00 PM 32.8477 -106.0682 106° East  Level Estimated
Sat 03:57:00 PM 32.8112 -105.9198 106° East  Level Estimated
Sat 03:58:00 PM 32.7745 -105.7716 106° East  Level Estimated
Sat 03:59:00 PM 32.7376 -105.6234 106° East  Level Estimated
Sat 04:00:00 PM 32.7006 -105.4754 107° East  Level Estimated
Sat 04:01:00 PM 32.6634 -105.3275 107° East  Level Estimated
Sat 04:02:00 PM 32.6260 -105.1798 107° East  Level Estimated
Sat 04:03:00 PM 32.5884 -105.0321 107° East  Level Estimated
Sat 04:04:00 PM 32.5507 -104.8846 107° East  Level Estimated
Sat 04:05:00 PM 32.5128 -104.7372 107° East  Level Estimated
Sat 04:06:00 PM 32.4747 -104.5899 107° East  Level Estimated
Sat 04:06:51 PM 32.4390 -104.2260 107° East 479 551 37,000  Level FlightAware ADS-B
Sat 04:07:00 PM 32.4365 -104.4428 107° East  Level Estimated
Sat 04:07:07 PM 32.4300 -104.1900 106° East 479 551 37,000  Level FlightAware ADS-B
Sat 04:08:12 PM 32.3850 -104.0270 108° East 480 552 37,000  Level FlightAware ADS-B
Sat 04:08:50 PM 32.3640 -103.9460 107° East 480 552 37,000  Level FlightAware ADS-B
Sat 04:09:26 PM 32.3440 -103.8690 107° East 480 552 37,000  Level FlightAware ADS-B
Sat 04:10:02 PM 32.3240 -103.7920 107° East 480 552 37,000  Level FlightAware ADS-B
Sat 04:10:50 PM 32.2970 -103.6900 107° East 480 552 37,000  Level FlightAware ADS-B
Sat 04:11:39 PM 32.2380 -103.5060 111° Southeast 485 558 37,000  Level FlightAware ADS-B
Sat 04:12:31 PM 32.2020 -103.3780 108° East 485 558 37,000  Level FlightAware ADS-B
Sat 04:13:28 PM 32.1610 -103.2340 109° East 486 559 37,000  Level FlightAware ADS-B
Sat 04:13:52 PM 32.1440 -103.1760 109° East 486 559 37,000  Level FlightAware ADS-B
Sat 04:14:44 PM 32.1070 -103.0440 108° East 487 560 37,000  Level FlightAware ADS-B
Sat 04:15:40 PM 32.0660 -102.9030 109° East 487 560 37,000  Level FlightAware ADS-B
Sat 04:16:08 PM 32.0460 -102.8320 108° East 487 560 37,000  Level FlightAware ADS-B
Sat 04:16:58 PM 32.0090 -102.7060 109° East 489 563 37,000  Level FlightAware ADS-B
Sat 04:17:42 PM 31.9770 -102.5950 109° East 492 566 37,000  Level FlightAware ADS-B
Sat 04:18:38 PM 31.9360 -102.4550 109° East 494 568 37,000  Level FlightAware ADS-B
Sat 04:19:41 PM 31.8890 -102.2950 109° East 495 570 37,000  Level FlightAware ADS-B
Sat 04:20:08 PM 31.8690 -102.2270 109° East 495 570 37,000  Level FlightAware ADS-B
Sat 04:20:42 PM 31.8430 -102.1400 109° East 493 567 37,000  Level FlightAware ADS-B
Sat 04:21:27 PM 31.8090 -102.0240 109° East 491 565 37,000  Level FlightAware ADS-B
Sat 04:22:29 PM 31.7630 -101.8680 109° East 490 564 37,000  Level FlightAware ADS-B
Sat 04:22:58 PM 31.7420 -101.7990 110° East 491 565 37,000  Level FlightAware ADS-B
Sat 04:23:30 PM 31.7170 -101.7150 109° East 492 566 37,000  Level FlightAware ADS-B
Sat 04:24:03 PM 31.6920 -101.6340 110° East 493 567 37,000  Level FlightAware ADS-B
Sat 04:24:50 PM 31.6560 -101.5140 109° East 495 570 37,000  Level FlightAware ADS-B
Sat 04:25:46 PM 31.6130 -101.3720 110° East 496 571 37,000  Level FlightAware ADS-B
Sat 04:26:19 PM 31.5880 -101.2890 109° East 496 571 37,000  Level FlightAware ADS-B
Sat 04:26:47 PM 31.5660 -101.2180 110° East 495 570 37,000  Level FlightAware ADS-B
Sat 04:27:20 PM 31.5410 -101.1350 109° East 493 567 37,000  Level FlightAware ADS-B
Sat 04:28:09 PM 31.5030 -101.0120 110° East 492 566 37,000  Level FlightAware ADS-B
Sat 04:29:02 PM 31.4630 -100.8800 110° East 490 564 37,000  Level FlightAware ADS-B
Sat 04:29:38 PM 31.4350 -100.7920 110° East 489 563 37,000  Level FlightAware ADS-B
Sat 04:30:28 PM 31.3960 -100.6660 110° East 489 563 37,000  Level FlightAware ADS-B
Sat 04:31:09 PM 31.3650 -100.5640 110° East 488 562 37,000  Level FlightAware ADS-B
Sat 04:31:57 PM 31.3280 -100.4480 110° East 487 560 37,000  Level FlightAware ADS-B
Sat 04:32:50 PM 31.2870 -100.3150 110° East 488 562 37,000  Level FlightAware ADS-B
Sat 04:33:16 PM 31.2660 -100.2490 110° East 488 562 37,000  Level FlightAware ADS-B
Sat 04:34:06 PM 31.2280 -100.1250 110° East 487 560 37,000  Level FlightAware ADS-B
Sat 04:34:57 PM 31.1880 -100.0010 111° Southeast 487 560 37,000  Level FlightAware ADS-B
Sat 04:35:38 PM 31.1560 -99.9010 110° East 487 560 37,000  Level FlightAware ADS-B
Sat 04:36:10 PM 31.1310 -99.8210 110° East 485 558 37,000  Level FlightAware ADS-B
Sat 04:37:17 PM 31.0790 -99.6580 110° East 483 556 37,000  Level FlightAware ADS-B
Sat 04:38:09 PM 31.0390 -99.5330 110° East 483 556 37,000  Level FlightAware ADS-B
Sat 04:38:46 PM 31.0090 -99.4410 111° Southeast 483 556 37,000  Level FlightAware ADS-B
Sat 04:39:39 PM 30.9670 -99.3100 110° East 483 556 37,000  Level FlightAware ADS-B
Sat 04:40:11 PM 30.9420 -99.2320 110° East 484 557 37,000  Level FlightAware ADS-B
Sat 04:41:07 PM 30.8980 -99.0970 111° Southeast 485 558 37,000  Level FlightAware ADS-B
Sat 04:41:42 PM 30.8690 -99.0100 111° Southeast 486 559 37,000  Level FlightAware ADS-B
Sat 04:42:40 PM 30.8240 -98.8720 111° Southeast 488 562 37,000  Level FlightAware ADS-B
Sat 04:43:36 PM 30.7910 -98.7260 105° East 501 577 37,000 -56 Level FlightAware ADS-B
Sat 04:44:28 PM 30.7780 -98.5870 96° East 500 575 36,900 -1,020 Descending FlightAware ADS-B
Sat 04:45:16 PM 30.7660 -98.4590 96° East 501 577 35,300 -1,950 Descending FlightAware ADS-B
Sat 04:45:48 PM 30.7580 -98.3730 96° East 511 588 34,300 -1,725 Descending FlightAware ADS-B
Sat 04:46:36 PM 30.7450 -98.2390 96° East 522 601 33,000 -821 Descending FlightAware ADS-B
Sat 04:47:23 PM 30.7330 -98.1110 96° East 517 595 33,000  Level FlightAware ADS-B
Sat 04:48:15 PM 30.7190 -97.9680 96° East 516 594 33,000  Level FlightAware ADS-B
Sat 04:49:10 PM 30.7030 -97.8140 97° East 515 593 33,000  Level FlightAware ADS-B
Sat 04:49:44 PM 30.6940 -97.7230 97° East 514 592 33,000  Level FlightAware ADS-B
Sat 04:50:31 PM 30.6810 -97.5950 97° East 514 592 33,000  Level FlightAware ADS-B
Sat 04:51:17 PM 30.6680 -97.4680 97° East 517 595 33,000 -319 Level FlightAware ADS-B
Sat 04:52:05 PM 30.6550 -97.3370 97° East 509 586 32,500 -1,286 Descending FlightAware ADS-B
Sat 04:52:41 PM 30.6450 -97.2400 97° East 502 578 31,200 -2,530 Descending FlightAware ADS-B
Sat 04:53:28 PM 30.6310 -97.1130 97° East 503 579 29,000 -2,903 Descending FlightAware ADS-B
Sat 04:54:14 PM 30.6180 -96.9900 97° East 501 577 26,700 -2,710 Descending FlightAware ADS-B
Sat 04:55:01 PM 30.6060 -96.8690 97° East 487 560 24,800 -2,368 Descending FlightAware ADS-B
Sat 04:55:30 PM 30.5970 -96.7930 98° East 478 550 23,700 -2,360 Descending FlightAware ADS-B
Sat 04:56:30 PM 30.5680 -96.6470 103° East 444 511 21,300 -2,313 Descending FlightAware ADS-B
Sat 04:56:53 PM 30.5400 -96.6080 130° Southeast 427 491 20,500 -2,071 Descending FlightAware ADS-B
Sat 04:57:54 PM 30.4580 -96.5090 134° Southeast 407 468 18,400 -2,286 Descending FlightAware ADS-B
Sat 04:58:38 PM 30.4010 -96.4400 134° Southeast 404 465 16,500 -2,400 Descending FlightAware ADS-B
Sat 04:59:34 PM 30.3290 -96.3530 134° Southeast 393 452 14,400 -2,129 Descending FlightAware ADS-B
Sat 05:00:11 PM 30.2860 -96.3020 134° Southeast 389 448 13,200 -2,258 Descending FlightAware ADS-B
Sat 05:01:07 PM 30.2130 -96.2170 135° Southeast 379 436 10,900 -1,694 Descending FlightAware ADS-B
Sat 05:01:36 PM 30.1720 -96.1880 149° Southeast 353 406 10,800 -87 Descending FlightAware ADS-B
Sat 05:02:16 PM 30.1130 -96.1540 154° Southeast 353 406 10,800  Level FlightAware ADS-B
Sat 05:03:01 PM 30.0590 -96.1020 140° Southeast 358 412 10,800  Level FlightAware ADS-B
Sat 05:03:36 PM 30.0140 -96.0530 137° Southeast 358 412 10,800  Level FlightAware ADS-B
Sat 05:04:31 PM 29.9500 -95.9850 137° Southeast 356 410 10,800 -500 Level FlightAware ADS-B
Sat 05:05:24 PM 29.8880 -95.9190 137° Southeast 350 403 9,900 -706 Descending FlightAware ADS-B
Sat 05:05:56 PM 29.8480 -95.8770 138° Southeast 317 365 9,800 -115 Descending FlightAware ADS-B
Sat 05:06:16 PM 29.8260 -95.8530 137° Southeast 304 350 9,800  Level FlightAware ADS-B
Sat 05:06:46 PM 29.7960 -95.8210 137° Southeast 300 345 9,800  Level FlightAware ADS-B
Sat 05:07:16 PM 29.7650 -95.7890 138° Southeast 297 342 9,800 -300 Level FlightAware ADS-B
Sat 05:07:46 PM 29.7360 -95.7580 137° Southeast 288 331 9,500 -873 Descending FlightAware ADS-B
Sat 05:08:11 PM 29.7110 -95.7320 138° Southeast 283 326 9,000 -1,200 Descending FlightAware ADS-B
Sat 05:08:36 PM 29.6890 -95.7080 137° Southeast 278 320 8,500 -1,320 Descending FlightAware ADS-B
Sat 05:09:01 PM 29.6630 -95.6810 138° Southeast 276 318 7,900 -1,400 Descending FlightAware ADS-B
Sat 05:09:36 PM 29.6330 -95.6490 137° Southeast 276 318 7,100 -1,525 Descending FlightAware ADS-B
Sat 05:10:00 PM 29.6070 -95.6220 138° Southeast 273 314 6,400 -1,472 Descending FlightAware ADS-B
Sat 05:10:29 PM 29.5800 -95.5940 138° Southeast 266 306 5,800 -1,138 Descending FlightAware ADS-B
Sat 05:10:58 PM 29.5540 -95.5660 137° Southeast 256 295 5,300 -1,059 Descending FlightAware ADS-B
Sat 05:11:03 PM 29.5500 -95.5620 139° Southeast 254 292 5,200 -571 Descending FlightAware ADS-B
Sat 05:11:40 PM 29.5260 -95.5250 127° Southeast 221 254 4,900 -857 Descending FlightAware ADS-B
Sat 05:12:13 PM 29.5230 -95.4900 96° East 211 243 4,200 -1,463 Descending FlightAware ADS-B
Sat 05:12:21 PM 29.5230 -95.4800 90° East 214 246 3,900 -1,429 Descending FlightAware ADS-B
Sat 05:12:55 PM 29.5300 -95.4440 77° East 194 223 3,200 -1,333 Descending FlightAware ADS-B
Sat 05:13:15 PM 29.5370 -95.4250 67° East 189 217 2,700 -1,286 Descending FlightAware ADS-B
Sat 05:13:37 PM 29.5470 -95.4070 57° Northeast 185 213 2,300 -1,256 Descending FlightAware ADS-B
Sat 05:13:58 PM 29.5570 -95.3910 54° Northeast 178 205 1,800 -933 Descending FlightAware ADS-B
Sat 05:14:22 PM 29.5690 -95.3730 53° Northeast 170 196 1,600 -450 Descending FlightAware ADS-B
Sat 05:14:38 PM 29.5760 -95.3610 56° Northeast 162 186 1,500 -324 Descending FlightAware ADS-B
Sat 05:14:59 PM 29.5840 -95.3470 57° Northeast 149 171 1,400 -566 Descending FlightAware ADS-B
Sat 05:15:31 PM 29.6000 -95.3280 46° Northeast 152 175 1,000 -787 Descending FlightAware ADS-B
Sat 05:16:00 PM 29.6140 -95.3130 43° Northeast 147 169 600 -873 Descending FlightAware ADS-B
Sat 05:16:26 PM 29.6270 -95.2980 45° Northeast 151 174 200 -923 Descending FlightAware ADS-B
Sat 05:16:48 PM 29.6390 -95.2860 41° Northeast 151 174 -545 Descending FlightAware ADS-B
Sat 05:17:13 PM 29.6490 -95.2740 46° Northeast 151 174  Level FlightAware ADS-B

Login

Don't have an account? Register now (free) for customized features, flight alerts, and more!